Time;durP1;ratioP1;P1;durP2;ratioP2;P2;SDS_P1;SDS_P2;PMS_P1;PMS_P2;Temp;Humidity;BMP_temperature;BMP_pressure;BME280_temperature;BME280_humidity;BME280_pressure;Samples;Min_cycle;Max_cycle;Signal;HPM_P1;HPM_P2
2022/09/05 00:00:22;;;;;;;17.25;15.75;;;26.00;1.00;;;;;;5042535;28;20092;-53
2022/09/05 00:03:19;;;;;;;17.33;15.75;;;26.10;1.00;;;;;;5034573;28;20493;-52
2022/09/05 00:06:11;;;;;;;17.90;15.80;;;26.00;1.00;;;;;;5027318;28;20046;-52
2022/09/05 00:09:00;;;;;;;18.10;16.20;;;26.00;1.00;;;;;;5042612;28;20091;-55
2022/09/05 00:11:59;;;;;;;17.27;15.52;;;26.00;1.00;;;;;;5033120;28;20017;-54
2022/09/05 00:14:39;;;;;;;18.13;16.45;;;25.90;1.00;;;;;;5029663;28;20514;-51
2022/09/05 00:17:04;;;;;;;18.30;16.70;;;25.90;1.00;;;;;;5034613;28;20021;-54
2022/09/05 00:19:42;;;;;;;17.75;16.15;;;25.90;1.00;;;;;;5044084;28;20051;-52
2022/09/05 00:22:33;;;;;;;17.55;16.05;;;25.90;1.00;;;;;;5034480;28;20029;-54
2022/09/05 00:25:37;;;;;;;18.20;16.50;;;25.90;1.00;;;;;;5030538;28;20128;-54
2022/09/05 00:28:26;;;;;;;18.75;16.98;;;25.80;1.00;;;;;;5036393;28;20038;-50
2022/09/05 00:31:21;;;;;;;17.20;15.48;;;25.80;1.00;;;;;;5030353;28;20033;-51
2022/09/05 00:34:14;;;;;;;;;;;25.80;1.00;;;;;;5032461;28;20045;-51
2022/09/05 00:36:45;;;;;;;18.02;16.25;;;25.70;1.00;;;;;;5022061;28;19905;-55
2022/09/05 00:39:34;;;;;;;17.50;15.98;;;25.70;1.00;;;;;;5031952;28;20533;-53
2022/09/05 00:42:07;;;;;;;17.80;16.20;;;25.70;1.00;;;;;;5032691;28;20902;-51
2022/09/05 00:44:37;;;;;;;18.08;16.30;;;25.70;1.00;;;;;;5040027;28;20083;-56
2022/09/05 00:47:12;;;;;;;17.92;16.25;;;25.70;1.00;;;;;;5033777;28;20029;-55
2022/09/05 00:49:50;;;;;;;18.80;17.02;;;25.70;1.00;;;;;;5033238;28;20040;-56
2022/09/05 00:52:19;;;;;;;19.27;17.33;;;25.60;1.00;;;;;;5033745;28;20113;-55
2022/09/05 00:55:22;;;;;;;17.77;16.08;;;25.60;1.00;;;;;;5036175;28;20029;-55
2022/09/05 00:57:56;;;;;;;18.40;17.00;;;25.60;1.00;;;;;;5021417;28;20030;-55
2022/09/05 01:00:32;;;;;;;18.58;16.80;;;25.60;1.00;;;;;;5038979;28;20386;-53
2022/09/05 01:03:22;;;;;;;17.38;15.88;;;25.60;1.00;;;;;;5045838;28;20036;-53
2022/09/05 01:06:03;;;;;;;18.92;17.33;;;25.60;1.00;;;;;;5039778;28;20112;-53
2022/09/05 01:18:48;;;;;;;14.98;13.70;;;25.50;1.00;;;;;;5020700;28;20028;-55
2022/09/05 01:21:51;;;;;;;15.18;13.85;;;25.50;1.00;;;;;;5032187;28;20025;-51
2022/09/05 01:24:50;;;;;;;16.55;15.05;;;25.30;1.00;;;;;;5029099;28;20041;-52
2022/09/05 01:27:47;;;;;;;14.50;13.07;;;25.40;1.00;;;;;;5019603;28;20040;-55
2022/09/05 01:33:38;;;;;;;13.57;12.40;;;25.40;1.00;;;;;;5030493;28;20555;-55
2022/09/05 01:36:28;;;;;;;13.98;12.70;;;25.40;1.00;;;;;;5035524;28;20120;-52
2022/09/05 01:39:00;;;;;;;13.27;12.18;;;25.40;1.00;;;;;;5033188;28;20104;-51
2022/09/05 01:41:50;;;;;;;14.75;13.30;;;25.40;1.00;;;;;;5026212;28;20045;-50
2022/09/05 01:44:27;;;;;;;15.05;13.55;;;25.30;1.00;;;;;;5032824;28;20052;-51
2022/09/05 01:47:24;;;;;;;14.02;12.82;;;25.30;1.00;;;;;;5032015;28;20013;-51
2022/09/05 01:49:58;;;;;;;13.88;12.82;;;25.30;1.00;;;;;;5032649;28;20519;-51
2022/09/05 01:52:42;;;;;;;14.02;12.68;;;25.30;1.00;;;;;;5032986;28;20037;-52
2022/09/05 01:55:31;;;;;;;13.70;12.43;;;25.30;1.00;;;;;;5023080;28;20031;-50
2022/09/05 01:58:27;;;;;;;13.65;12.60;;;25.30;1.00;;;;;;5032553;28;20025;-51
2022/09/05 02:01:23;;;;;;;14.27;12.95;;;25.20;1.00;;;;;;5031701;28;20514;-55
2022/09/05 02:04:07;;;;;;;14.27;13.18;;;25.20;1.00;;;;;;5030540;28;20048;-54
2022/09/05 02:07:10;;;;;;;13.32;12.32;;;25.20;1.00;;;;;;5028545;28;20034;-57
2022/09/05 02:09:58;;;;;;;14.20;13.00;;;25.20;1.00;;;;;;5035084;28;20033;-56
2022/09/05 02:12:33;;;;;;;14.13;12.93;;;25.20;1.00;;;;;;5032587;28;20041;-57
2022/09/05 02:15:08;;;;;;;15.68;14.18;;;25.10;1.00;;;;;;5039710;28;20490;-56
2022/09/05 02:17:40;;;;;;;13.93;12.63;;;25.20;1.00;;;;;;5031356;28;20379;-55
2022/09/05 02:20:10;;;;;;;16.30;14.75;;;25.10;1.00;;;;;;5031301;28;20037;-53
2022/09/05 02:22:47;;;;;;;14.25;12.95;;;25.00;1.00;;;;;;5023770;28;20080;-56
2022/09/05 02:25:26;;;;;;;16.02;14.73;;;25.10;1.00;;;;;;5023593;28;20025;-55
2022/09/05 02:28:29;;;;;;;17.08;15.35;;;25.00;1.00;;;;;;5028827;28;20159;-56
2022/09/05 02:31:03;;;;;;;14.80;13.45;;;25.00;1.00;;;;;;5023396;28;20491;-55
2022/09/05 02:33:37;;;;;;;15.02;13.63;;;25.00;1.00;;;;;;5031930;28;20033;-56
2022/09/05 02:36:20;;;;;;;15.63;14.20;;;25.00;1.00;;;;;;5031209;28;20117;-55
2022/09/05 02:39:28;;;;;;;15.82;14.45;;;24.90;1.00;;;;;;5031663;28;20034;-53
2022/09/05 02:42:15;;;;;;;14.80;13.70;;;25.00;1.00;;;;;;5029180;28;20041;-55
2022/09/05 02:45:09;;;;;;;14.77;13.55;;;25.00;1.00;;;;;;5029209;28;20498;-56
2022/09/05 02:47:53;;;;;;;15.27;13.70;;;25.00;1.00;;;;;;5030608;28;20026;-55
2022/09/05 02:50:34;;;;;;;;;;;25.00;1.00;;;;;;5039947;28;20086;-55
2022/09/05 02:53:01;;;;;;;15.13;13.82;;;24.80;1.00;;;;;;5028798;28;20331;-51
2022/09/05 02:55:53;;;;;;;15.15;13.85;;;24.90;1.00;;;;;;5030858;28;20033;-52
2022/09/05 02:58:38;;;;;;;14.93;13.57;;;24.90;1.00;;;;;;5031235;28;20029;-56
2022/09/05 03:04:28;;;;;;;13.98;12.75;;;25.00;1.00;;;;;;5031208;28;20124;-55
2022/09/05 03:07:10;;;;;;;14.50;13.00;;;24.90;1.00;;;;;;5034823;28;20414;-56
2022/09/05 03:10:16;;;;;;;13.82;12.57;;;25.00;1.00;;;;;;5027256;28;20017;-52
2022/09/05 03:12:57;;;;;;;13.65;12.45;;;25.00;1.00;;;;;;5007480;28;20381;-55
2022/09/05 03:15:34;;;;;;;13.65;12.45;;;25.00;1.00;;;;;;5031928;28;20037;-56
2022/09/05 03:18:30;;;;;;;13.68;12.57;;;24.90;1.00;;;;;;5031881;28;20030;-51
2022/09/05 03:21:14;;;;;;;14.45;13.15;;;24.90;1.00;;;;;;5030825;28;20021;-55
2022/09/05 03:24:07;;;;;;;12.63;11.27;;;24.80;1.00;;;;;;5035385;28;20328;-56
2022/09/05 03:26:49;;;;;;;12.68;11.38;;;24.80;1.00;;;;;;5041698;28;20187;-55
2022/09/05 03:29:36;;;;;;;13.35;12.13;;;24.80;1.00;;;;;;5033799;28;20044;-55
2022/09/05 03:32:36;;;;;;;12.50;11.40;;;24.70;1.00;;;;;;5022975;28;20438;-51
2022/09/05 03:35:30;;;;;;;13.60;12.43;;;24.70;1.00;;;;;;5041089;28;20536;-56
2022/09/05 03:38:49;;;;;;;14.00;12.80;;;24.60;1.00;;;;;;5025134;28;20360;-51
2022/09/05 03:41:39;;;;;;;14.95;13.60;;;24.60;1.00;;;;;;5046236;28;20120;-51
2022/09/05 03:44:17;;;;;;;15.18;13.65;;;24.50;1.00;;;;;;5048731;28;20451;-54
2022/09/05 03:47:27;;;;;;;13.93;12.63;;;24.60;1.00;;;;;;5038506;28;20065;-53
2022/09/05 03:50:11;;;;;;;16.23;14.32;;;24.60;1.00;;;;;;5024253;28;20056;-53
2022/09/05 03:53:02;;;;;;;14.15;12.95;;;24.50;1.00;;;;;;5035267;28;20061;-52
2022/09/05 03:55:42;;;;;;;14.90;13.50;;;24.60;1.00;;;;;;5032127;28;20087;-52
2022/09/05 03:58:13;;;;;;;16.38;14.68;;;24.60;1.00;;;;;;5034189;28;20025;-53
2022/09/05 04:00:45;;;;;;;16.17;14.63;;;24.50;1.00;;;;;;5035201;28;20112;-54
2022/09/05 04:03:25;;;;;;;15.80;14.52;;;24.50;1.00;;;;;;5034069;28;20439;-51
2022/09/05 04:06:31;;;;;;;15.60;14.32;;;24.50;1.00;;;;;;5038982;28;20060;-54
2022/09/05 04:09:18;;;;;;;15.75;14.25;;;24.50;1.00;;;;;;5032411;28;20100;-52
2022/09/05 04:11:52;;;;;;;15.52;14.00;;;24.40;1.00;;;;;;5037972;28;20033;-52
2022/09/05 04:14:41;;;;;;;16.65;15.00;;;24.50;1.00;;;;;;5041933;28;20103;-51
2022/09/05 04:17:16;;;;;;;15.95;14.35;;;24.40;1.00;;;;;;5034961;28;20037;-51
2022/09/05 04:20:37;;;;;;;15.80;14.18;;;24.10;1.00;;;;;;5036185;28;20029;-50
2022/09/05 04:23:27;;;;;;;14.65;13.23;;;24.30;1.00;;;;;;5007084;28;20385;-52
2022/09/05 04:26:30;;;;;;;15.25;13.85;;;24.40;1.00;;;;;;5024159;28;20513;-56
2022/09/05 04:29:07;;;;;;;15.93;14.23;;;24.50;1.00;;;;;;5022413;28;20479;-55
2022/09/05 04:31:56;;;;;;;15.05;13.65;;;24.40;1.00;;;;;;5034186;28;20060;-53
2022/09/05 04:34:44;;;;;;;16.40;14.90;;;24.50;1.00;;;;;;5033438;28;20045;-53
2022/09/05 04:37:28;;;;;;;16.52;14.95;;;24.40;1.00;;;;;;5021072;28;20025;-51
2022/09/05 04:39:54;;;;;;;16.95;15.30;;;24.40;1.00;;;;;;5042611;28;20037;-50
2022/09/05 04:42:23;;;;;;;17.05;15.40;;;24.40;1.00;;;;;;5031558;28;20035;-53
2022/09/05 04:45:12;;;;;;;14.88;13.55;;;24.40;1.00;;;;;;5026685;28;20495;-54
2022/09/05 04:47:51;;;;;;;16.77;15.07;;;24.40;1.00;;;;;;5023028;28;20044;-52
2022/09/05 04:50:20;;;;;;;16.15;14.52;;;24.40;1.00;;;;;;5045326;28;20071;-54
2022/09/05 04:53:10;;;;;;;16.77;15.10;;;24.30;1.00;;;;;;5034005;28;20033;-51
2022/09/05 04:55:46;;;;;;;19.50;14.85;;;24.30;1.00;;;;;;5032960;28;20022;-52
2022/09/05 04:58:33;;;;;;;16.33;14.85;;;24.20;1.00;;;;;;5033740;28;20025;-54
2022/09/05 05:01:05;;;;;;;17.45;15.25;;;24.30;1.00;;;;;;5020693;28;20033;-55
2022/09/05 05:03:33;;;;;;;16.95;14.77;;;24.30;1.00;;;;;;5032636;28;20487;-54
2022/09/05 05:06:09;;;;;;;16.60;15.02;;;24.30;1.00;;;;;;5033655;28;20026;-53
2022/09/05 05:08:53;;;;;;;16.27;14.85;;;24.30;1.00;;;;;;5031806;28;20024;-51
2022/09/05 05:11:28;;;;;;;;;;;24.30;1.00;;;;;;5031628;28;20463;-50
2022/09/05 05:14:00;;;;;;;16.52;14.88;;;24.30;1.00;;;;;;5032423;28;20371;-50
2022/09/05 05:16:33;;;;;;;16.27;14.88;;;24.20;1.00;;;;;;5033610;28;20033;-53
2022/09/05 05:19:16;;;;;;;16.13;14.45;;;24.30;1.00;;;;;;5018820;28;20021;-54
2022/09/05 05:21:57;;;;;;;16.20;14.70;;;24.30;1.00;;;;;;5033410;28;20111;-49
2022/09/05 05:24:28;;;;;;;14.73;13.23;;;24.20;1.00;;;;;;5031902;28;20114;-52
2022/09/05 05:26:58;;;;;;;15.15;13.63;;;24.30;1.00;;;;;;5031513;28;20025;-52
2022/09/05 05:29:45;;;;;;;14.88;13.43;;;24.40;1.00;;;;;;5037132;28;20021;-55
2022/09/05 05:32:25;;;;;;;15.38;13.75;;;24.40;1.00;;;;;;5047644;28;20207;-56
2022/09/05 05:35:02;;;;;;;16.10;13.70;;;24.10;1.00;;;;;;5032272;28;20035;-55
2022/09/05 05:37:45;;;;;;;15.75;13.80;;;24.30;1.00;;;;;;5025377;28;20026;-56
2022/09/05 05:40:28;;;;;;;13.90;12.57;;;24.30;1.00;;;;;;5038024;28;20082;-54
2022/09/05 05:43:15;;;;;;;13.80;12.43;;;24.30;1.00;;;;;;5033008;28;20163;-56
2022/09/05 05:45:42;;;;;;;13.68;12.40;;;24.30;1.00;;;;;;5031815;28;20438;-55
2022/09/05 05:48:16;;;;;;;12.85;11.50;;;24.30;1.00;;;;;;5031600;28;20034;-56
2022/09/05 05:50:48;;;;;;;14.48;13.13;;;24.40;1.00;;;;;;5031903;28;20082;-55
2022/09/05 05:53:52;;;;;;;17.17;14.50;;;24.40;1.00;;;;;;5032601;28;20040;-56
2022/09/05 05:56:40;;;;;;;26.48;17.27;;;24.30;1.00;;;;;;5026284;28;20068;-54
2022/09/05 05:59:41;;;;;;;25.73;16.50;;;24.40;1.00;;;;;;5041613;28;20196;-56
2022/09/05 06:02:11;;;;;;;16.85;14.00;;;24.40;1.00;;;;;;5020175;28;20046;-56
2022/09/05 06:05:21;;;;;;;12.77;11.60;;;24.40;1.00;;;;;;5032576;28;20042;-56
2022/09/05 06:08:21;;;;;;;12.77;11.57;;;24.50;1.00;;;;;;5009351;28;20057;-53
2022/09/05 06:10:58;;;;;;;12.65;11.52;;;24.50;1.00;;;;;;5032260;28;20021;-57
2022/09/05 06:13:56;;;;;;;13.32;12.02;;;24.40;1.00;;;;;;5019526;28;20041;-57
2022/09/05 06:16:47;;;;;;;12.52;11.23;;;24.40;1.00;;;;;;5031635;28;20104;-55
2022/09/05 06:19:34;;;;;;;12.90;10.57;;;24.50;1.00;;;;;;5032407;28;20053;-57
2022/09/05 06:22:30;;;;;;;12.25;11.05;;;24.60;1.00;;;;;;5026247;28;20044;-54
2022/09/05 06:25:28;;;;;;;15.75;11.32;;;24.60;1.00;;;;;;5032508;28;20030;-57
2022/09/05 06:28:18;;;;;;;15.85;11.65;;;24.60;1.00;;;;;;5033356;28;20041;-54
2022/09/05 06:30:53;;;;;;;12.25;10.93;;;24.60;1.00;;;;;;5031704;28;20029;-52
2022/09/05 06:33:57;;;;;;;12.35;11.23;;;24.70;1.00;;;;;;5044034;28;20364;-56
2022/09/05 06:37:00;;;;;;;13.23;11.77;;;24.70;1.00;;;;;;5019275;28;20049;-57
2022/09/05 06:39:34;;;;;;;12.05;10.77;;;24.60;1.00;;;;;;5023444;28;20025;-53
2022/09/05 06:42:29;;;;;;;12.18;10.98;;;24.70;1.00;;;;;;5035959;28;20025;-56
2022/09/05 06:45:18;;;;;;;11.25;9.48;;;24.70;1.00;;;;;;5032839;28;20528;-56
2022/09/05 06:47:46;;;;;;;12.45;10.20;;;24.80;1.00;;;;;;5026155;28;20132;-56
2022/09/05 06:50:22;;;;;;;12.60;11.23;;;24.80;1.00;;;;;;5036473;28;20033;-56
2022/09/05 06:53:29;;;;;;;14.77;9.88;;;24.90;1.00;;;;;;5038049;28;20082;-53
2022/09/05 06:56:04;;;;;;;11.05;9.75;;;24.90;1.00;;;;;;5024304;28;20041;-56
2022/09/05 06:58:42;;;;;;;10.35;9.40;;;25.00;1.00;;;;;;5023102;28;20017;-55
2022/09/05 07:01:10;;;;;;;12.57;9.60;;;25.10;1.00;;;;;;5031041;28;20053;-52
2022/09/05 07:04:08;;;;;;;11.68;10.07;;;25.20;1.00;;;;;;5031911;28;20360;-52
2022/09/05 07:06:59;;;;;;;12.65;10.40;;;25.20;1.00;;;;;;5022604;28;20022;-51
2022/09/05 07:09:29;;;;;;;11.60;9.73;;;25.20;1.00;;;;;;5033610;28;20095;-52
2022/09/05 07:12:13;;;;;;;10.70;9.23;;;25.30;1.00;;;;;;5033914;28;20201;-53
2022/09/05 07:15:11;;;;;;;11.52;9.40;;;25.40;1.00;;;;;;5035667;28;20022;-54
2022/09/05 07:17:54;;;;;;;10.80;9.80;;;25.30;1.00;;;;;;4996708;28;20033;-56
2022/09/05 07:20:23;;;;;;;11.05;10.07;;;25.40;1.00;;;;;;5022338;28;20040;-54
2022/09/05 07:23:06;;;;;;;12.45;9.57;;;25.40;1.00;;;;;;5034569;28;20032;-56
2022/09/05 07:25:40;;;;;;;11.88;9.27;;;25.40;1.00;;;;;;5035633;28;20033;-53
2022/09/05 07:28:14;;;;;;;8.93;8.25;;;25.40;1.00;;;;;;5034286;28;20017;-54
2022/09/05 07:30:46;;;;;;;10.52;9.48;;;25.50;1.00;;;;;;5035480;28;20463;-55
2022/09/05 07:33:20;;;;;;;10.38;9.25;;;25.50;1.00;;;;;;5034417;28;20037;-55
2022/09/05 07:35:48;;;;;;;10.18;8.60;;;25.50;1.00;;;;;;5035832;28;20026;-55
2022/09/05 07:38:25;;;;;;;10.68;8.38;;;25.50;1.00;;;;;;5033964;28;20041;-52
2022/09/05 07:41:08;;;;;;;10.77;9.25;;;25.60;1.00;;;;;;5034966;28;20043;-54
2022/09/05 07:43:41;;;;;;;11.45;8.93;;;25.60;1.00;;;;;;5034839;28;20026;-55
2022/09/05 07:46:22;;;;;;;9.88;8.80;;;25.60;1.00;;;;;;5035357;28;20029;-57
2022/09/05 07:48:59;;;;;;;10.95;8.13;;;25.70;1.00;;;;;;5033190;28;20479;-55
2022/09/05 07:51:37;;;;;;;10.95;8.10;;;25.70;1.00;;;;;;5033126;28;20021;-55
2022/09/05 07:54:19;;;;;;;9.63;8.73;;;25.60;1.00;;;;;;5032469;28;20479;-56
2022/09/05 07:56:52;;;;;;;8.70;7.50;;;25.50;1.00;;;;;;5036585;28;20024;-55
2022/09/05 07:59:19;;;;;;;8.90;7.97;;;25.50;1.00;;;;;;5043689;28;20441;-56
2022/09/05 08:01:47;;;;;;;9.30;7.97;;;25.50;1.00;;;;;;5032614;28;20365;-55
2022/09/05 08:04:26;;;;;;;12.95;8.75;;;25.50;1.00;;;;;;5034745;28;20045;-56
2022/09/05 08:06:53;;;;;;;9.32;7.55;;;25.50;1.00;;;;;;5034114;28;20387;-54
2022/09/05 08:09:30;;;;;;;10.43;8.57;;;25.60;1.00;;;;;;5034185;28;20053;-56
2022/09/05 08:12:01;;;;;;;8.85;8.13;;;25.50;1.00;;;;;;5031907;28;20137;-56
2022/09/05 08:14:42;;;;;;;9.57;8.38;;;25.60;1.00;;;;;;5033754;28;20057;-56
2022/09/05 08:17:19;;;;;;;11.63;9.32;;;25.60;1.00;;;;;;5033862;28;20108;-53
2022/09/05 08:20:05;;;;;;;9.75;8.73;;;25.60;1.00;;;;;;5034720;28;20026;-51
2022/09/05 08:22:47;;;;;;;10.10;8.98;;;25.60;1.00;;;;;;5041779;28;20127;-50
2022/09/05 08:25:51;;;;;;;9.20;8.30;;;25.60;1.00;;;;;;5034942;28;20079;-53
2022/09/05 08:28:38;;;;;;;9.45;8.55;;;25.70;1.00;;;;;;5024483;28;20046;-55
2022/09/05 08:31:08;;;;;;;8.95;8.15;;;25.80;1.00;;;;;;5021450;28;20029;-55
2022/09/05 08:33:36;;;;;;;13.57;10.10;;;25.90;1.00;;;;;;5037568;28;20467;-55
2022/09/05 08:36:25;;;;;;;10.40;8.65;;;26.00;1.00;;;;;;5033306;28;20030;-55
2022/09/05 08:38:52;;;;;;;9.75;8.80;;;26.00;1.00;;;;;;5038776;28;20021;-55
2022/09/05 08:41:42;;;;;;;7.93;7.20;;;26.00;1.00;;;;;;5034176;28;20442;-56
2022/09/05 08:44:39;;;;;;;9.20;8.30;;;26.10;1.00;;;;;;5030403;28;20341;-54
2022/09/05 08:47:28;;;;;;;10.93;7.70;;;26.00;1.00;;;;;;5032573;28;20029;-53
2022/09/05 08:50:20;;;;;;;13.55;8.27;;;26.10;1.00;;;;;;5022250;28;20021;-54
2022/09/05 08:53:21;;;;;;;10.10;9.18;;;26.20;1.00;;;;;;5035775;28;20033;-52
2022/09/05 08:55:54;;;;;;;10.50;9.23;;;26.10;1.00;;;;;;5029663;28;20579;-56
2022/09/05 08:58:42;;;;;;;9.77;8.48;;;26.10;1.00;;;;;;5032646;28;20152;-52
2022/09/05 09:01:26;;;;;;;9.57;8.38;;;26.20;1.00;;;;;;5033848;28;20021;-54
2022/09/05 09:04:05;;;;;;;9.50;8.43;;;26.30;1.00;;;;;;5033376;28;20391;-51
2022/09/05 09:07:01;;;;;;;11.50;8.48;;;26.40;1.00;;;;;;5031344;28;20056;-54
2022/09/05 09:09:26;;;;;;;8.20;7.40;;;26.50;1.00;;;;;;5029877;28;20442;-53
2022/09/05 09:12:02;;;;;;;12.50;8.57;;;26.60;1.00;;;;;;5031299;28;20170;-51
2022/09/05 09:14:52;;;;;;;10.40;7.18;;;26.70;1.00;;;;;;5033324;28;20160;-51
2022/09/05 09:17:27;;;;;;;8.52;7.70;;;26.80;1.00;;;;;;5030469;28;20037;-56
2022/09/05 09:20:14;;;;;;;8.10;7.15;;;26.90;1.00;;;;;;5031421;28;20503;-55
2022/09/05 09:22:44;;;;;;;7.22;6.13;;;27.00;1.00;;;;;;5030541;28;20439;-54
2022/09/05 09:25:27;;;;;;;10.25;7.38;;;27.10;1.00;;;;;;5033239;28;20025;-54
2022/09/05 09:28:20;;;;;;;10.48;7.95;;;27.00;1.00;;;;;;5032034;28;20052;-56
2022/09/05 09:31:12;;;;;;;8.23;6.65;;;26.90;1.00;;;;;;5022905;28;20139;-54
2022/09/05 09:34:07;;;;;;;7.05;6.18;;;27.00;1.00;;;;;;5022688;28;20441;-52
2022/09/05 09:36:48;;;;;;;8.40;6.50;;;27.10;1.00;;;;;;5012947;28;20487;-53
2022/09/05 09:39:41;;;;;;;7.15;6.50;;;27.10;1.00;;;;;;5022406;28;20475;-56
2022/09/05 09:42:12;;;;;;;9.07;6.40;;;27.10;1.00;;;;;;5032067;28;20052;-56
2022/09/05 09:45:13;;;;;;;6.05;5.45;;;27.10;1.00;;;;;;5039566;28;20030;-57
2022/09/05 09:47:59;;;;;;;5.30;4.78;;;27.10;1.00;;;;;;5022079;28;20030;-55
2022/09/05 09:50:34;;;;;;;8.77;6.35;;;27.10;1.00;;;;;;5032791;28;20059;-53
2022/09/05 09:53:13;;;;;;;15.43;13.35;;;27.10;1.00;;;;;;5031989;28;20104;-54
2022/09/05 09:56:08;;;;;;;10.18;9.13;;;27.20;1.00;;;;;;5032858;28;20468;-54
2022/09/05 09:58:55;;;;;;;9.70;8.68;;;27.20;1.00;;;;;;5031830;28;20021;-54
2022/09/05 10:01:28;;;;;;;8.23;7.40;;;27.20;1.00;;;;;;5032618;28;20026;-54
2022/09/05 10:04:35;;;;;;;10.50;7.47;;;27.20;1.00;;;;;;5034326;28;20084;-55
2022/09/05 10:07:26;;;;;;;7.53;6.70;;;27.20;1.00;;;;;;5020057;28;20108;-55
2022/09/05 10:10:34;;;;;;;10.00;7.20;;;27.30;1.00;;;;;;5030527;28;20044;-56
2022/09/05 10:13:27;;;;;;;9.60;8.13;;;27.40;1.00;;;;;;5025942;28;20461;-54
2022/09/05 10:16:15;;;;;;;7.78;7.07;;;27.40;1.00;;;;;;5030591;28;20380;-55
2022/09/05 10:18:47;;;;;;;12.15;8.50;;;27.50;1.00;;;;;;5040891;28;20037;-54
2022/09/05 10:21:26;;;;;;;10.18;8.63;;;27.60;1.00;;;;;;5026336;28;20022;-56
2022/09/05 10:24:16;;;;;;;8.35;7.50;;;27.60;1.00;;;;;;5037610;28;20483;-53
2022/09/05 10:27:21;;;;;;;7.18;6.40;;;27.70;1.00;;;;;;5043271;28;20037;-54
2022/09/05 10:30:06;;;;;;;10.45;6.70;;;27.80;1.00;;;;;;5034667;28;20045;-56
2022/09/05 10:32:40;;;;;;;7.93;6.97;;;27.90;1.00;;;;;;5035630;28;20370;-56
2022/09/05 10:35:31;;;;;;;8.93;7.72;;;28.00;1.00;;;;;;5027913;28;20025;-53
2022/09/05 10:38:07;;;;;;;7.78;6.90;;;28.20;1.00;;;;;;5033090;28;20039;-55
2022/09/05 10:40:35;;;;;;;9.85;8.77;;;28.30;1.00;;;;;;5032014;28;20062;-56
2022/09/05 10:43:29;;;;;;;10.57;9.48;;;28.40;1.00;;;;;;5034382;28;20027;-55
2022/09/05 10:46:03;;;;;;;7.90;7.15;;;28.40;1.00;;;;;;5022771;28;20553;-56
2022/09/05 10:48:29;;;;;;;;;;;28.50;1.00;;;;;;5029267;28;20043;-54
2022/09/05 10:51:03;;;;;;;7.55;6.80;;;28.50;1.00;;;;;;5031925;28;20003;-54
2022/09/05 10:53:39;;;;;;;8.43;7.07;;;28.60;1.00;;;;;;5036094;28;20048;-57
2022/09/05 10:56:22;;;;;;;5.55;5.13;;;28.80;1.00;;;;;;5031353;28;20026;-57
2022/09/05 10:59:00;;;;;;;7.18;5.30;;;28.80;1.00;;;;;;5035016;28;20087;-55
2022/09/05 11:01:40;;;;;;;6.93;5.47;;;28.70;1.00;;;;;;5031763;28;20045;-55
2022/09/05 11:04:33;;;;;;;5.28;4.78;;;28.70;1.00;;;;;;5019120;28;20228;-57
2022/09/05 11:07:25;;;;;;;9.07;5.47;;;28.50;1.00;;;;;;5021631;28;20048;-55
2022/09/05 11:10:02;;;;;;;5.38;4.90;;;28.50;1.00;;;;;;5032989;28;20120;-54
2022/09/05 11:12:43;;;;;;;5.85;5.15;;;28.60;1.00;;;;;;5029984;28;20048;-55
2022/09/05 11:15:32;;;;;;;9.52;6.00;;;28.70;1.00;;;;;;5039208;28;20041;-56
2022/09/05 11:18:32;;;;;;;5.78;5.20;;;28.70;1.00;;;;;;5031077;28;20021;-56
2022/09/05 11:21:14;;;;;;;5.60;4.80;;;28.60;1.00;;;;;;5045190;28;20028;-54
2022/09/05 11:23:45;;;;;;;5.35;4.38;;;28.80;1.00;;;;;;5032990;28;20185;-55
2022/09/05 11:26:48;;;;;;;6.75;5.38;;;28.70;1.00;;;;;;5036567;28;20113;-57
2022/09/05 11:29:50;;;;;;;7.88;6.80;;;28.80;1.00;;;;;;5019454;28;20163;-53
2022/09/05 11:32:33;;;;;;;5.95;5.30;;;28.80;1.00;;;;;;5020963;28;20082;-56
2022/09/05 11:35:18;;;;;;;7.80;5.95;;;28.90;1.00;;;;;;5030816;28;20097;-53
2022/09/05 11:37:52;;;;;;;7.05;6.30;;;29.00;1.00;;;;;;5031670;28;20391;-55
2022/09/05 11:40:41;;;;;;;5.45;5.00;;;29.30;1.00;;;;;;5044680;28;20026;-56
2022/09/05 11:43:28;;;;;;;6.93;6.07;;;29.30;1.00;;;;;;5031103;28;20029;-55
2022/09/05 11:46:26;;;;;;;5.50;5.07;;;29.30;1.00;;;;;;5040370;28;20483;-57
2022/09/05 11:49:09;;;;;;;6.45;5.43;;;29.20;1.00;;;;;;5030805;28;20174;-56
2022/09/05 11:52:05;;;;;;;7.07;5.32;;;29.00;1.00;;;;;;5034352;28;20038;-56
2022/09/05 11:54:57;;;;;;;6.07;4.97;;;28.80;1.00;;;;;;5032712;28;20442;-55
2022/09/05 11:57:54;;;;;;;6.72;4.95;;;28.90;1.00;;;;;;5035318;28;20037;-58
2022/09/05 12:00:33;;;;;;;7.78;5.53;;;28.90;1.00;;;;;;5024521;28;20091;-56
2022/09/05 12:03:10;;;;;;;6.03;4.47;;;28.80;1.00;;;;;;5021706;28;20079;-55
2022/09/05 12:05:51;;;;;;;6.63;5.00;;;28.80;1.00;;;;;;5031771;28;20164;-57
2022/09/05 12:08:28;;;;;;;7.28;5.60;;;28.90;1.00;;;;;;5031184;28;20075;-57
2022/09/05 12:11:07;;;;;;;6.43;5.50;;;28.90;1.00;;;;;;5038854;28;20033;-54
2022/09/05 12:13:46;;;;;;;6.50;5.07;;;29.10;1.00;;;;;;5032141;28;20418;-55
2022/09/05 12:16:20;;;;;;;6.50;5.53;;;29.10;1.00;;;;;;5035067;28;20111;-56
2022/09/05 12:19:08;;;;;;;9.75;5.20;;;29.20;1.00;;;;;;5037787;28;20480;-54
2022/09/05 12:21:47;;;;;;;5.80;5.10;;;32.80;1.00;;;;;;5034858;28;20096;-56
2022/09/05 12:24:31;;;;;;;5.75;5.18;;;36.10;1.00;;;;;;5033953;28;20057;-57
2022/09/05 12:27:03;;;;;;;4.95;4.45;;;38.50;1.00;;;;;;5049423;28;20045;-54
2022/09/05 12:29:35;;;;;;;5.45;4.60;;;39.40;1.00;;;;;;5034073;28;20456;-56
2022/09/05 12:32:04;;;;;;;5.75;5.20;;;39.30;1.00;;;;;;5034617;28;20068;-58
2022/09/05 12:34:41;;;;;;;4.90;4.50;;;39.30;1.00;;;;;;5033373;28;20037;-57
2022/09/05 12:37:11;;;;;;;5.60;4.95;;;39.20;1.00;;;;;;5028994;28;20025;-57
2022/09/05 12:39:55;;;;;;;5.82;5.32;;;38.80;1.00;;;;;;5033557;28;20104;-57
2022/09/05 12:42:41;;;;;;;5.80;5.15;;;38.60;1.00;;;;;;5022674;28;20108;-58
2022/09/05 12:45:17;;;;;;;6.40;5.68;;;39.60;1.00;;;;;;5038913;28;20123;-58
2022/09/05 12:48:23;;;;;;;5.40;5.00;;;42.20;1.00;;;;;;5036419;28;20032;-57
2022/09/05 12:50:57;;;;;;;6.25;5.55;;;40.50;1.00;;;;;;5028014;28;20041;-56
2022/09/05 12:53:33;;;;;;;5.97;5.57;;;40.70;1.00;;;;;;5033603;28;20038;-56
2022/09/05 12:56:50;;;;;;;5.82;5.32;;;38.70;1.00;;;;;;5030054;28;20563;-55
2022/09/05 12:59:20;;;;;;;5.72;5.43;;;35.40;1.00;;;;;;5030230;28;20030;-56
2022/09/05 13:02:02;;;;;;;5.93;5.32;;;38.50;1.00;;;;;;5032624;28;20064;-56
2022/09/05 13:04:34;;;;;;;5.88;5.32;;;39.60;1.00;;;;;;5035284;28;20033;-55
2022/09/05 13:07:06;;;;;;;6.45;5.85;;;39.70;1.00;;;;;;5040430;28;20026;-57
2022/09/05 13:09:58;;;;;;;7.03;6.30;;;42.50;1.00;;;;;;5031433;28;20116;-56
2022/09/05 13:12:42;;;;;;;7.43;6.80;;;44.20;1.00;;;;;;5033448;28;20083;-56
2022/09/05 13:15:37;;;;;;;6.28;5.78;;;45.40;1.00;;;;;;5031379;28;20116;-56
2022/09/05 13:18:14;;;;;;;6.65;6.20;;;45.90;1.00;;;;;;5028972;28;20043;-57
2022/09/05 13:20:50;;;;;;;6.70;6.03;;;46.20;1.00;;;;;;5032811;28;20091;-57
2022/09/05 13:23:57;;;;;;;6.63;6.18;;;46.60;1.00;;;;;;5032406;28;20387;-57
2022/09/05 13:26:52;;;;;;;6.63;6.13;;;46.80;1.00;;;;;;5010488;28;20489;-57
2022/09/05 13:29:51;;;;;;;6.57;6.07;;;45.30;1.00;;;;;;5010396;28;20056;-57
2022/09/05 13:32:20;;;;;;;6.00;5.50;;;40.50;1.00;;;;;;5001634;28;20045;-55
2022/09/05 13:34:54;;;;;;;5.97;5.68;;;38.10;1.00;;;;;;5008285;28;20044;-56
2022/09/05 13:37:35;;;;;;;6.68;5.88;;;38.20;1.00;;;;;;5018595;28;20044;-56
2022/09/05 13:40:15;;;;;;;6.60;5.85;;;40.40;1.00;;;;;;5029676;28;20021;-56
2022/09/05 13:42:44;;;;;;;6.13;5.63;;;43.40;1.00;;;;;;5032091;28;20033;-56
2022/09/05 13:45:17;;;;;;;6.00;5.50;;;44.40;1.00;;;;;;5035744;28;20021;-56
2022/09/05 13:48:14;;;;;;;5.65;5.35;;;45.00;1.00;;;;;;5032374;28;20075;-57
2022/09/05 13:50:45;;;;;;;6.28;5.68;;;44.60;1.00;;;;;;5032171;28;20105;-56
2022/09/05 13:53:25;;;;;;;5.80;5.50;;;43.20;1.00;;;;;;5042001;28;20040;-54
2022/09/05 13:56:21;;;;;;;5.82;5.50;;;41.40;1.00;;;;;;5032072;28;20475;-56
2022/09/05 13:59:05;;;;;;;6.15;5.75;;;42.10;1.00;;;;;;5031909;28;20038;-57
2022/09/05 14:01:53;;;;;;;6.32;5.82;;;39.50;1.00;;;;;;5039849;28;20120;-58
2022/09/05 14:04:54;;;;;;;6.47;5.93;;;41.10;1.00;;;;;;5031485;28;20045;-57
2022/09/05 14:07:29;;;;;;;6.00;5.60;;;40.90;1.00;;;;;;5027423;28;20095;-55
2022/09/05 14:10:16;;;;;;;6.03;5.63;;;40.10;1.00;;;;;;5031758;28;20100;-57
2022/09/05 14:13:04;;;;;;;6.20;5.90;;;39.70;1.00;;;;;;5041262;28;20454;-56
2022/09/05 14:15:41;;;;;;;5.80;5.40;;;39.30;1.00;;;;;;5031275;28;20057;-56
2022/09/05 14:18:23;;;;;;;6.10;5.53;;;38.20;1.00;;;;;;5032251;28;20471;-56
2022/09/05 14:21:17;;;;;;;5.10;4.65;;;37.10;1.00;;;;;;5030850;28;20025;-54
2022/09/05 14:23:54;;;;;;;5.90;5.30;;;35.90;1.00;;;;;;5022264;28;20025;-54
2022/09/05 14:26:33;;;;;;;5.03;4.72;;;36.80;1.00;;;;;;5025302;28;20448;-54
2022/09/05 14:29:13;;;;;;;5.15;4.72;;;36.50;1.00;;;;;;5032760;28;20103;-55